Enter the Airport ICAO Code

Search by Airport or City

Current Weather

LEPP | Pamplona Airport

Pamplona, Navarre, Spain

Last Update 18 Minutes Ago

Sky with Few Clouds

Temperature of 10 ºC

Moderate Winds from SouthEast

Temperature

10 ºC

Dew Point Temperature

05 ºC

Relative Humidity

71.14 %

Wind Direction

SouthEast (120º, Ranging from 100º to 170º)

Wind Velocity

24 km/h (13 kt)

Gusts

None

Visibility

Greater than 10 Kilometers

Sea Level Pressure

1005 hPa (Hectopascals)

Layers of Clouds

5% to 30% of Sky Covered from 1372 mts (4500 ft) Above Ground Level.

METAR LEPP 160700Z 12013KT 100V170 9999 FEW045 10/05 Q1005

Weather Forecast

LEPP | Pamplona Airport

Pamplona, Navarre, Spain

Forecast valid for the next 20 Hours

From now on it is expected:

Sky with Few Clouds

Light to Moderate Winds from South

From now on it is expected 5 hours with intermittent periods of:

Strong Winds from SouthEast with Gusts

Maximum Temperature

13 ºC in 8 Hours

Minimum Temperature

07 ºC in -1 Hours

TAF LEPP 160200Z 1603/1703 18009KT 9999 FEW035 TX13/1615Z TN07/1606Z TEMPO 1603/1615 15015G30KT PROB40 TEMPO 1605/1615 15020G35KT PROB30 TEMPO 1607/1612 15025G40KT